sensor_id;sensor_type;location;lat;lon;timestamp;temperature;humidity
1165;DHT22;571;50.930;6.926;2023-04-15T02:47:35;8.30;94.10
1165;DHT22;571;50.930;6.926;2023-04-15T02:50:05;8.30;94.30
1165;DHT22;571;50.930;6.926;2023-04-15T02:52:33;8.20;94.30
1165;DHT22;571;50.930;6.926;2023-04-15T02:55:00;8.10;94.80
1165;DHT22;571;50.930;6.926;2023-04-15T02:57:28;8.10;94.80
1165;DHT22;571;50.930;6.926;2023-04-15T02:59:55;8.10;94.70
1165;DHT22;571;50.930;6.926;2023-04-15T03:02:22;8.10;94.90
1165;DHT22;571;50.930;6.926;2023-04-15T03:04:50;8.00;95.00
1165;DHT22;571;50.930;6.926;2023-04-15T03:07:23;8.00;94.80
1165;DHT22;571;50.930;6.926;2023-04-15T03:09:50;8.00;95.00
1165;DHT22;571;50.930;6.926;2023-04-15T03:12:20;8.10;94.70
1165;DHT22;571;50.930;6.926;2023-04-15T03:14:49;8.10;94.60
1165;DHT22;571;50.930;6.926;2023-04-15T03:17:19;8.10;94.70
1165;DHT22;571;50.930;6.926;2023-04-15T03:19:53;8.10;94.40
1165;DHT22;571;50.930;6.926;2023-04-15T03:22:44;8.20;94.20
1165;DHT22;571;50.930;6.926;2023-04-15T03:25:10;8.20;94.10
1165;DHT22;571;50.930;6.926;2023-04-15T03:27:37;8.20;94.20
1165;DHT22;571;50.930;6.926;2023-04-15T03:30:08;8.10;94.50
1165;DHT22;571;50.930;6.926;2023-04-15T03:32:40;8.10;94.80
1165;DHT22;571;50.930;6.926;2023-04-15T03:35:11;8.00;94.70
1165;DHT22;571;50.930;6.926;2023-04-15T03:37:42;8.00;95.10
1165;DHT22;571;50.930;6.926;2023-04-15T03:40:09;8.00;95.00
1165;DHT22;571;50.930;6.926;2023-04-15T03:42:36;7.90;95.00
1165;DHT22;571;50.930;6.926;2023-04-15T03:45:04;7.80;95.30
1165;DHT22;571;50.930;6.926;2023-04-15T03:47:30;7.80;95.60
1165;DHT22;571;50.930;6.926;2023-04-15T03:49:58;7.70;95.40
1165;DHT22;571;50.930;6.926;2023-04-15T03:52:29;7.80;95.30
1165;DHT22;571;50.930;6.926;2023-04-15T03:54:55;7.80;95.90
1165;DHT22;571;50.930;6.926;2023-04-15T03:57:23;7.80;95.30
1165;DHT22;571;50.930;6.926;2023-04-15T03:59:52;7.90;95.20
1165;DHT22;571;50.930;6.926;2023-04-15T04:02:18;7.90;95.20
1165;DHT22;571;50.930;6.926;2023-04-15T04:04:47;8.00;94.70
1165;DHT22;571;50.930;6.926;2023-04-15T04:07:22;8.00;94.90
1165;DHT22;571;50.930;6.926;2023-04-15T04:09:55;7.90;95.10
1165;DHT22;571;50.930;6.926;2023-04-15T04:12:22;7.90;95.20
1165;DHT22;571;50.930;6.926;2023-04-15T04:14:48;7.90;95.10
1165;DHT22;571;50.930;6.926;2023-04-15T04:17:21;7.90;95.00
1165;DHT22;571;50.930;6.926;2023-04-15T04:19:53;7.90;94.50
1165;DHT22;571;50.930;6.926;2023-04-15T04:22:21;7.80;95.00
1165;DHT22;571;50.930;6.926;2023-04-15T04:24:52;7.70;95.20
1165;DHT22;571;50.930;6.926;2023-04-15T04:27:22;7.80;95.20
1165;DHT22;571;50.930;6.926;2023-04-15T04:29:52;7.80;95.20
1165;DHT22;571;50.930;6.926;2023-04-15T04:32:19;7.70;95.50
1165;DHT22;571;50.930;6.926;2023-04-15T04:34:55;7.80;95.20
1165;DHT22;571;50.930;6.926;2023-04-15T04:37:22;7.70;95.50
1165;DHT22;571;50.930;6.926;2023-04-15T04:39:51;7.80;95.30
1165;DHT22;571;50.930;6.926;2023-04-15T04:42:25;7.70;95.70
1165;DHT22;571;50.930;6.926;2023-04-15T04:44:52;7.50;95.90
1165;DHT22;571;50.930;6.926;2023-04-15T04:47:19;7.40;96.00
1165;DHT22;571;50.930;6.926;2023-04-15T04:49:45;7.40;96.10
1165;DHT22;571;50.930;6.926;2023-04-15T04:52:12;7.40;96.20
1165;DHT22;571;50.930;6.926;2023-04-15T04:54:39;7.40;96.40
1165;DHT22;571;50.930;6.926;2023-04-15T04:57:06;7.40;96.70
1165;DHT22;571;50.930;6.926;2023-04-15T04:59:39;7.70;95.50
1165;DHT22;571;50.930;6.926;2023-04-15T05:02:08;7.80;95.30
1165;DHT22;571;50.930;6.926;2023-04-15T05:04:38;7.70;95.90
1165;DHT22;571;50.930;6.926;2023-04-15T05:07:08;7.50;96.30
1165;DHT22;571;50.930;6.926;2023-04-15T05:09:35;7.60;96.50
1165;DHT22;571;50.930;6.926;2023-04-15T05:12:11;7.80;95.50
1165;DHT22;571;50.930;6.926;2023-04-15T05:14:41;7.80;95.60
1165;DHT22;571;50.930;6.926;2023-04-15T05:17:09;7.70;95.90
1165;DHT22;571;50.930;6.926;2023-04-15T05:19:37;7.70;95.50
1165;DHT22;571;50.930;6.926;2023-04-15T05:22:03;7.60;95.70
1165;DHT22;571;50.930;6.926;2023-04-15T05:24:44;7.60;96.30
1165;DHT22;571;50.930;6.926;2023-04-15T05:27:26;7.50;97.00
1165;DHT22;571;50.930;6.926;2023-04-15T05:29:59;7.50;97.00
1165;DHT22;571;50.930;6.926;2023-04-15T05:32:26;7.80;95.60
1165;DHT22;571;50.930;6.926;2023-04-15T05:34:56;8.20;94.20
1165;DHT22;571;50.930;6.926;2023-04-15T05:37:24;8.20;94.20
1165;DHT22;571;50.930;6.926;2023-04-15T05:39:56;8.10;95.10
1165;DHT22;571;50.930;6.926;2023-04-15T05:42:24;7.90;95.40
1165;DHT22;571;50.930;6.926;2023-04-15T05:45:03;7.80;96.20
1165;DHT22;571;50.930;6.926;2023-04-15T05:47:48;7.80;96.40
1165;DHT22;571;50.930;6.926;2023-04-15T05:50:39;7.70;96.70
1165;DHT22;571;50.930;6.926;2023-04-15T05:53:08;7.80;96.90
1165;DHT22;571;50.930;6.926;2023-04-15T05:55:36;7.90;97.20
1165;DHT22;571;50.930;6.926;2023-04-15T05:58:17;7.90;97.20
1165;DHT22;571;50.930;6.926;2023-04-15T06:01:09;8.00;97.30
1165;DHT22;571;50.930;6.926;2023-04-15T06:03:42;8.30;96.00
1165;DHT22;571;50.930;6.926;2023-04-15T06:06:12;8.40;95.80
1165;DHT22;571;50.930;6.926;2023-04-15T06:08:40;8.40;96.20
1165;DHT22;571;50.930;6.926;2023-04-15T06:11:07;8.50;95.60
1165;DHT22;571;50.930;6.926;2023-04-15T06:13:45;8.60;95.00
1165;DHT22;571;50.930;6.926;2023-04-15T06:19:01;9.00;94.30
1165;DHT22;571;50.930;6.926;2023-04-15T06:21:33;8.90;94.10
1165;DHT22;571;50.930;6.926;2023-04-15T06:24:05;8.80;94.60
1165;DHT22;571;50.930;6.926;2023-04-15T06:26:35;8.90;94.30
1165;DHT22;571;50.930;6.926;2023-04-15T06:29:06;9.10;93.80
1165;DHT22;571;50.930;6.926;2023-04-15T06:31:40;9.30;93.60
1165;DHT22;571;50.930;6.926;2023-04-15T06:34:10;9.30;93.10
1165;DHT22;571;50.930;6.926;2023-04-15T06:36:55;9.20;94.70
1165;DHT22;571;50.930;6.926;2023-04-15T06:39:38;9.20;94.80
1165;DHT22;571;50.930;6.926;2023-04-15T06:42:11;9.30;95.10
1165;DHT22;571;50.930;6.926;2023-04-15T06:44:41;9.30;95.70
1165;DHT22;571;50.930;6.926;2023-04-15T06:47:09;9.30;95.40
1165;DHT22;571;50.930;6.926;2023-04-15T06:49:37;9.40;95.20
1165;DHT22;571;50.930;6.926;2023-04-15T06:52:05;9.50;94.80
1165;DHT22;571;50.930;6.926;2023-04-15T06:54:33;9.50;94.60
1165;DHT22;571;50.930;6.926;2023-04-15T06:57:00;9.50;94.70
1165;DHT22;571;50.930;6.926;2023-04-15T06:59:27;9.50;95.20
1165;DHT22;571;50.930;6.926;2023-04-15T07:01:55;9.70;94.40
1165;DHT22;571;50.930;6.926;2023-04-15T07:04:36;9.90;94.80
1165;DHT22;571;50.930;6.926;2023-04-15T07:07:06;10.00;93.60
1165;DHT22;571;50.930;6.926;2023-04-15T07:09:40;10.20;93.00
1165;DHT22;571;50.930;6.926;2023-04-15T07:12:19;10.30;92.90
1165;DHT22;571;50.930;6.926;2023-04-15T07:14:46;10.40;92.90
1165;DHT22;571;50.930;6.926;2023-04-15T07:17:14;10.70;91.90
1165;DHT22;571;50.930;6.926;2023-04-15T07:19:43;10.60;92.30
1165;DHT22;571;50.930;6.926;2023-04-15T07:22:25;10.70;92.50
1165;DHT22;571;50.930;6.926;2023-04-15T07:25:01;10.70;92.80
1165;DHT22;571;50.930;6.926;2023-04-15T07:27:35;10.90;91.60
1165;DHT22;571;50.930;6.926;2023-04-15T07:30:09;11.00;91.80
1165;DHT22;571;50.930;6.926;2023-04-15T07:32:46;11.00;91.50
1165;DHT22;571;50.930;6.926;2023-04-15T07:35:18;11.20;92.30
1165;DHT22;571;50.930;6.926;2023-04-15T07:37:47;11.40;91.10
1165;DHT22;571;50.930;6.926;2023-04-15T07:40:19;11.50;91.60
1165;DHT22;571;50.930;6.926;2023-04-15T07:43:06;11.80;90.60
1165;DHT22;571;50.930;6.926;2023-04-15T07:45:36;11.90;90.50
1165;DHT22;571;50.930;6.926;2023-04-15T07:48:04;12.00;90.30
1165;DHT22;571;50.930;6.926;2023-04-15T07:50:34;12.10;90.10
1165;DHT22;571;50.930;6.926;2023-04-15T07:53:01;12.30;90.10
1165;DHT22;571;50.930;6.926;2023-04-15T07:55:31;12.30;89.70
1165;DHT22;571;50.930;6.926;2023-04-15T07:58:01;12.30;90.40
1165;DHT22;571;50.930;6.926;2023-04-15T08:00:32;12.40;89.40
1165;DHT22;571;50.930;6.926;2023-04-15T08:03:03;12.40;90.70
1165;DHT22;571;50.930;6.926;2023-04-15T08:05:30;12.40;90.60
1165;DHT22;571;50.930;6.926;2023-04-15T08:08:05;12.60;90.60
1165;DHT22;571;50.930;6.926;2023-04-15T08:10:35;12.60;90.20
1165;DHT22;571;50.930;6.926;2023-04-15T08:13:03;12.80;90.10
1165;DHT22;571;50.930;6.926;2023-04-15T08:15:29;12.90;90.90
1165;DHT22;571;50.930;6.926;2023-04-15T08:18:00;13.00;90.10
1165;DHT22;571;50.930;6.926;2023-04-15T08:20:27;13.00;88.40
1165;DHT22;571;50.930;6.926;2023-04-15T08:23:00;13.10;88.30
1165;DHT22;571;50.930;6.926;2023-04-15T08:25:29;13.40;87.30
1165;DHT22;571;50.930;6.926;2023-04-15T08:28:05;13.40;86.20
1165;DHT22;571;50.930;6.926;2023-04-15T08:30:48;13.50;87.20
1165;DHT22;571;50.930;6.926;2023-04-15T08:33:28;13.40;84.30
1165;DHT22;571;50.930;6.926;2023-04-15T08:35:58;13.50;82.90
1165;DHT22;571;50.930;6.926;2023-04-15T08:38:25;13.50;83.30
1165;DHT22;571;50.930;6.926;2023-04-15T08:40:59;13.70;82.90
1165;DHT22;571;50.930;6.926;2023-04-15T08:43:33;13.90;80.90
1165;DHT22;571;50.930;6.926;2023-04-15T08:46:02;13.80;80.00
1165;DHT22;571;50.930;6.926;2023-04-15T08:48:32;13.90;80.00
1165;DHT22;571;50.930;6.926;2023-04-15T08:51:02;13.80;77.10
1165;DHT22;571;50.930;6.926;2023-04-15T08:53:33;13.70;78.10
1165;DHT22;571;50.930;6.926;2023-04-15T08:56:07;13.60;76.80
1165;DHT22;571;50.930;6.926;2023-04-15T08:58:41;13.60;77.40
1165;DHT22;571;50.930;6.926;2023-04-15T09:01:13;13.60;78.90
1165;DHT22;571;50.930;6.926;2023-04-15T09:03:43;13.70;77.80
1165;DHT22;571;50.930;6.926;2023-04-15T09:06:19;13.80;76.60
1165;DHT22;571;50.930;6.926;2023-04-15T09:09:01;13.90;78.00
1165;DHT22;571;50.930;6.926;2023-04-15T09:15:20;13.90;77.10
1165;DHT22;571;50.930;6.926;2023-04-15T09:17:48;14.00;76.20
1165;DHT22;571;50.930;6.926;2023-04-15T09:20:18;13.90;73.70
1165;DHT22;571;50.930;6.926;2023-04-15T09:22:48;14.00;74.60
1165;DHT22;571;50.930;6.926;2023-04-15T09:25:27;14.10;75.80
1165;DHT22;571;50.930;6.926;2023-04-15T09:27:56;14.10;77.50
1165;DHT22;571;50.930;6.926;2023-04-15T09:30:25;14.30;75.90
1165;DHT22;571;50.930;6.926;2023-04-15T09:32:54;14.40;75.00
1165;DHT22;571;50.930;6.926;2023-04-15T09:35:22;14.50;76.30
1165;DHT22;571;50.930;6.926;2023-04-15T09:37:50;14.60;76.30
1165;DHT22;571;50.930;6.926;2023-04-15T09:40:30;14.50;75.20
1165;DHT22;571;50.930;6.926;2023-04-15T09:42:57;14.40;74.30
1165;DHT22;571;50.930;6.926;2023-04-15T09:45:25;14.50;74.80
1165;DHT22;571;50.930;6.926;2023-04-15T09:47:52;14.50;75.60
1165;DHT22;571;50.930;6.926;2023-04-15T09:50:40;14.50;76.20
1165;DHT22;571;50.930;6.926;2023-04-15T09:53:14;14.60;74.90
1165;DHT22;571;50.930;6.926;2023-04-15T09:55:43;14.70;77.00
1165;DHT22;571;50.930;6.926;2023-04-15T09:58:17;14.80;76.20
1165;DHT22;571;50.930;6.926;2023-04-15T10:00:54;14.80;75.20
1165;DHT22;571;50.930;6.926;2023-04-15T10:03:34;14.80;76.80
1165;DHT22;571;50.930;6.926;2023-04-15T10:06:06;14.90;75.50
1165;DHT22;571;50.930;6.926;2023-04-15T10:08:42;15.10;75.70
1165;DHT22;571;50.930;6.926;2023-04-15T10:11:13;15.40;72.70
1165;DHT22;571;50.930;6.926;2023-04-15T10:13:42;15.30;71.10
1165;DHT22;571;50.930;6.926;2023-04-15T10:16:20;15.20;74.50
1165;DHT22;571;50.930;6.926;2023-04-15T10:19:00;15.10;76.20
1165;DHT22;571;50.930;6.926;2023-04-15T10:21:40;15.20;76.50
1165;DHT22;571;50.930;6.926;2023-04-15T10:24:20;15.10;76.60
1165;DHT22;571;50.930;6.926;2023-04-15T10:26:54;15.10;75.70
1165;DHT22;571;50.930;6.926;2023-04-15T10:29:28;15.10;76.70
1165;DHT22;571;50.930;6.926;2023-04-15T10:32:04;15.00;78.10
1165;DHT22;571;50.930;6.926;2023-04-15T10:34:34;15.00;78.20
1165;DHT22;571;50.930;6.926;2023-04-15T10:37:08;15.00;76.10
1165;DHT22;571;50.930;6.926;2023-04-15T10:39:45;15.00;77.00
1165;DHT22;571;50.930;6.926;2023-04-15T10:42:13;15.20;76.90
1165;DHT22;571;50.930;6.926;2023-04-15T10:44:42;15.30;75.60
1165;DHT22;571;50.930;6.926;2023-04-15T10:47:15;15.50;75.80
1165;DHT22;571;50.930;6.926;2023-04-15T10:49:48;15.50;80.00
1165;DHT22;571;50.930;6.926;2023-04-15T10:52:36;15.50;77.60
1165;DHT22;571;50.930;6.926;2023-04-15T10:55:13;15.60;76.70
1165;DHT22;571;50.930;6.926;2023-04-15T10:57:41;15.60;77.40
1165;DHT22;571;50.930;6.926;2023-04-15T11:00:12;15.70;75.80
1165;DHT22;571;50.930;6.926;2023-04-15T11:02:45;15.70;76.50
1165;DHT22;571;50.930;6.926;2023-04-15T11:05:13;15.70;73.50
1165;DHT22;571;50.930;6.926;2023-04-15T11:07:51;15.80;75.00
1165;DHT22;571;50.930;6.926;2023-04-15T11:10:51;15.80;75.60
1165;DHT22;571;50.930;6.926;2023-04-15T11:13:24;16.00;74.80
1165;DHT22;571;50.930;6.926;2023-04-15T11:15:58;15.90;75.60
1165;DHT22;571;50.930;6.926;2023-04-15T11:18:29;15.80;76.10
1165;DHT22;571;50.930;6.926;2023-04-15T11:20:58;16.00;75.20
1165;DHT22;571;50.930;6.926;2023-04-15T11:23:40;16.10;75.20
1165;DHT22;571;50.930;6.926;2023-04-15T11:26:11;16.20;77.20
1165;DHT22;571;50.930;6.926;2023-04-15T11:28:39;16.40;75.80
1165;DHT22;571;50.930;6.926;2023-04-15T11:31:08;16.50;74.60
1165;DHT22;571;50.930;6.926;2023-04-15T11:33:43;16.20;73.60
1165;DHT22;571;50.930;6.926;2023-04-15T11:36:13;16.20;74.40
1165;DHT22;571;50.930;6.926;2023-04-15T11:38:45;16.30;74.50
1165;DHT22;571;50.930;6.926;2023-04-15T11:41:12;16.20;71.60
1165;DHT22;571;50.930;6.926;2023-04-15T11:43:42;16.00;75.70
1165;DHT22;571;50.930;6.926;2023-04-15T11:49:33;15.80;75.40
1165;DHT22;571;50.930;6.926;2023-04-15T11:52:10;15.80;76.60
1165;DHT22;571;50.930;6.926;2023-04-15T11:54:42;15.80;74.60
1165;DHT22;571;50.930;6.926;2023-04-15T11:57:09;15.50;76.20
1165;DHT22;571;50.930;6.926;2023-04-15T12:01:43;15.50;76.50
1165;DHT22;571;50.930;6.926;2023-04-15T12:03:38;15.40;76.80
1165;DHT22;571;50.930;6.926;2023-04-15T12:06:15;15.30;79.50
1165;DHT22;571;50.930;6.926;2023-04-15T12:09:03;15.20;80.40
1165;DHT22;571;50.930;6.926;2023-04-15T12:11:37;15.10;80.30
1165;DHT22;571;50.930;6.926;2023-04-15T12:14:10;15.40;80.10
1165;DHT22;571;50.930;6.926;2023-04-15T12:16:40;15.40;78.90
1165;DHT22;571;50.930;6.926;2023-04-15T12:19:11;15.30;81.80
1165;DHT22;571;50.930;6.926;2023-04-15T12:21:41;15.40;81.90
1165;DHT22;571;50.930;6.926;2023-04-15T12:24:11;15.60;78.70
1165;DHT22;571;50.930;6.926;2023-04-15T12:26:43;15.40;78.50
1165;DHT22;571;50.930;6.926;2023-04-15T12:29:12;15.30;79.60
1165;DHT22;571;50.930;6.926;2023-04-15T12:31:46;15.30;79.80
1165;DHT22;571;50.930;6.926;2023-04-15T12:34:15;15.10;81.70
1165;DHT22;571;50.930;6.926;2023-04-15T12:36:43;15.10;81.80
1165;DHT22;571;50.930;6.926;2023-04-15T12:39:10;15.00;81.50
1165;DHT22;571;50.930;6.926;2023-04-15T12:41:37;14.90;81.40
1165;DHT22;571;50.930;6.926;2023-04-15T12:44:03;14.60;83.00
1165;DHT22;571;50.930;6.926;2023-04-15T12:46:31;14.60;83.70
1165;DHT22;571;50.930;6.926;2023-04-15T12:48:57;14.60;85.40
1165;DHT22;571;50.930;6.926;2023-04-15T12:51:25;14.60;84.00
1165;DHT22;571;50.930;6.926;2023-04-15T12:53:54;14.60;85.00
1165;DHT22;571;50.930;6.926;2023-04-15T12:56:21;14.40;85.50
1165;DHT22;571;50.930;6.926;2023-04-15T12:58:48;14.50;84.90
1165;DHT22;571;50.930;6.926;2023-04-15T13:01:15;14.60;83.80
1165;DHT22;571;50.930;6.926;2023-04-15T13:03:43;14.20;86.30
1165;DHT22;571;50.930;6.926;2023-04-15T13:06:09;14.10;87.60
1165;DHT22;571;50.930;6.926;2023-04-15T13:08:36;14.30;85.70
1165;DHT22;571;50.930;6.926;2023-04-15T13:11:04;14.40;86.00
1165;DHT22;571;50.930;6.926;2023-04-15T13:13:32;14.30;86.90
1165;DHT22;571;50.930;6.926;2023-04-15T13:16:00;14.20;87.40
1165;DHT22;571;50.930;6.926;2023-04-15T13:18:27;14.20;87.30
1165;DHT22;571;50.930;6.926;2023-04-15T13:20:58;14.20;87.20
1165;DHT22;571;50.930;6.926;2023-04-15T13:23:30;14.30;86.40
1165;DHT22;571;50.930;6.926;2023-04-15T13:26:05;14.40;86.00
1165;DHT22;571;50.930;6.926;2023-04-15T13:28:34;14.30;86.50
1165;DHT22;571;50.930;6.926;2023-04-15T13:31:01;14.00;87.60
1165;DHT22;571;50.930;6.926;2023-04-15T13:33:51;14.00;87.70
1165;DHT22;571;50.930;6.926;2023-04-15T13:36:20;13.90;89.20
1165;DHT22;571;50.930;6.926;2023-04-15T13:38:47;13.50;90.20
1165;DHT22;571;50.930;6.926;2023-04-15T13:41:18;13.50;90.50
1165;DHT22;571;50.930;6.926;2023-04-15T13:43:47;13.30;91.10
1165;DHT22;571;50.930;6.926;2023-04-15T13:46:20;13.40;90.90
1165;DHT22;571;50.930;6.926;2023-04-15T13:48:47;13.50;90.60
1165;DHT22;571;50.930;6.926;2023-04-15T13:51:14;13.50;90.50
1165;DHT22;571;50.930;6.926;2023-04-15T13:53:41;13.30;91.70
1165;DHT22;571;50.930;6.926;2023-04-15T13:56:10;13.20;91.50
1165;DHT22;571;50.930;6.926;2023-04-15T13:58:39;13.30;91.10
1165;DHT22;571;50.930;6.926;2023-04-15T14:01:10;13.30;91.00
1165;DHT22;571;50.930;6.926;2023-04-15T14:03:38;13.10;91.70
1165;DHT22;571;50.930;6.926;2023-04-15T14:06:14;13.10;92.00
1165;DHT22;571;50.930;6.926;2023-04-15T14:08:47;13.10;91.70
1165;DHT22;571;50.930;6.926;2023-04-15T14:11:16;13.00;91.70
1165;DHT22;571;50.930;6.926;2023-04-15T14:13:46;13.10;91.80
1165;DHT22;571;50.930;6.926;2023-04-15T14:16:12;13.10;91.60
1165;DHT22;571;50.930;6.926;2023-04-15T14:18:39;13.10;91.40
1165;DHT22;571;50.930;6.926;2023-04-15T14:21:08;13.00;91.20
1165;DHT22;571;50.930;6.926;2023-04-15T14:23:35;12.90;91.60
1165;DHT22;571;50.930;6.926;2023-04-15T14:26:04;13.00;92.00
1165;DHT22;571;50.930;6.926;2023-04-15T14:28:31;13.00;92.20
1165;DHT22;571;50.930;6.926;2023-04-15T14:31:04;13.00;92.20
1165;DHT22;571;50.930;6.926;2023-04-15T14:33:36;13.10;91.70
1165;DHT22;571;50.930;6.926;2023-04-15T14:36:05;13.10;92.10
1165;DHT22;571;50.930;6.926;2023-04-15T14:38:35;13.10;92.60
1165;DHT22;571;50.930;6.926;2023-04-15T14:41:06;13.20;92.30
1165;DHT22;571;50.930;6.926;2023-04-15T14:43:36;13.20;92.90
1165;DHT22;571;50.930;6.926;2023-04-15T14:46:07;13.10;93.10
1165;DHT22;571;50.930;6.926;2023-04-15T14:48:34;13.30;92.40
1165;DHT22;571;50.930;6.926;2023-04-15T14:51:03;13.40;91.90
1165;DHT22;571;50.930;6.926;2023-04-15T14:53:35;13.40;92.10
1165;DHT22;571;50.930;6.926;2023-04-15T14:56:04;13.20;93.10
1165;DHT22;571;50.930;6.926;2023-04-15T14:58:35;13.20;93.80
1165;DHT22;571;50.930;6.926;2023-04-15T15:01:05;13.30;93.00
1165;DHT22;571;50.930;6.926;2023-04-15T15:03:37;13.20;93.70
1165;DHT22;571;50.930;6.926;2023-04-15T15:06:05;13.30;93.80
1165;DHT22;571;50.930;6.926;2023-04-15T15:08:34;13.40;93.30
1165;DHT22;571;50.930;6.926;2023-04-15T15:11:18;13.30;94.00
1165;DHT22;571;50.930;6.926;2023-04-15T15:13:45;13.40;92.50
1165;DHT22;571;50.930;6.926;2023-04-15T15:16:14;13.60;92.50
1165;DHT22;571;50.930;6.926;2023-04-15T15:18:44;13.70;92.30
1165;DHT22;571;50.930;6.926;2023-04-15T15:21:11;13.60;93.10
1165;DHT22;571;50.930;6.926;2023-04-15T15:23:38;13.30;93.80
1165;DHT22;571;50.930;6.926;2023-04-15T15:26:07;13.30;93.90
1165;DHT22;571;50.930;6.926;2023-04-15T15:28:37;13.20;94.00
1165;DHT22;571;50.930;6.926;2023-04-15T15:31:10;13.10;94.30
1165;DHT22;571;50.930;6.926;2023-04-15T15:33:39;13.20;93.70
1165;DHT22;571;50.930;6.926;2023-04-15T15:36:11;13.20;93.90
1165;DHT22;571;50.930;6.926;2023-04-15T15:38:39;12.90;93.60
1165;DHT22;571;50.930;6.926;2023-04-15T15:41:08;12.80;93.80
1165;DHT22;571;50.930;6.926;2023-04-15T15:43:35;12.80;94.30
1165;DHT22;571;50.930;6.926;2023-04-15T15:46:02;12.90;94.30
1165;DHT22;571;50.930;6.926;2023-04-15T15:48:35;12.90;94.50
1165;DHT22;571;50.930;6.926;2023-04-15T15:51:03;12.90;95.10
1165;DHT22;571;50.930;6.926;2023-04-15T15:53:37;12.90;94.60
1165;DHT22;571;50.930;6.926;2023-04-15T15:56:06;12.90;94.30
1165;DHT22;571;50.930;6.926;2023-04-15T15:58:33;12.80;95.90
1165;DHT22;571;50.930;6.926;2023-04-15T16:01:03;12.70;96.10
1165;DHT22;571;50.930;6.926;2023-04-15T16:03:39;12.50;96.90
1165;DHT22;571;50.930;6.926;2023-04-15T16:06:17;12.60;96.40
1165;DHT22;571;50.930;6.926;2023-04-15T16:08:53;12.70;95.80
1165;DHT22;571;50.930;6.926;2023-04-15T16:11:33;12.70;97.10
1165;DHT22;571;50.930;6.926;2023-04-15T16:14:06;12.60;97.30
1165;DHT22;571;50.930;6.926;2023-04-15T16:16:37;12.60;96.40
1165;DHT22;571;50.930;6.926;2023-04-15T16:19:04;12.70;97.00
1165;DHT22;571;50.930;6.926;2023-04-15T16:21:37;12.80;96.30
1165;DHT22;571;50.930;6.926;2023-04-15T16:24:05;12.70;96.50
1165;DHT22;571;50.930;6.926;2023-04-15T16:26:39;12.60;96.90
1165;DHT22;571;50.930;6.926;2023-04-15T16:29:08;12.50;97.40
1165;DHT22;571;50.930;6.926;2023-04-15T16:31:49;12.40;98.00
1165;DHT22;571;50.930;6.926;2023-04-15T16:34:16;12.20;98.50
1165;DHT22;571;50.930;6.926;2023-04-15T16:36:44;12.20;98.50
1165;DHT22;571;50.930;6.926;2023-04-15T16:39:14;12.20;99.10
1165;DHT22;571;50.930;6.926;2023-04-15T16:41:41;12.20;99.00
1165;DHT22;571;50.930;6.926;2023-04-15T16:46:38;12.20;99.30
1165;DHT22;571;50.930;6.926;2023-04-15T16:49:05;12.10;98.80
1165;DHT22;571;50.930;6.926;2023-04-15T16:51:32;12.10;99.30
1165;DHT22;571;50.930;6.926;2023-04-15T16:53:59;11.90;99.30
1165;DHT22;571;50.930;6.926;2023-04-15T16:56:27;12.00;99.10
1165;DHT22;571;50.930;6.926;2023-04-15T16:58:54;12.00;98.90
1165;DHT22;571;50.930;6.926;2023-04-15T17:01:20;12.00;98.90
1165;DHT22;571;50.930;6.926;2023-04-15T17:03:48;12.00;99.00
1165;DHT22;571;50.930;6.926;2023-04-15T17:06:16;11.90;99.20
1165;DHT22;571;50.930;6.926;2023-04-15T17:08:44;12.00;98.80
1165;DHT22;571;50.930;6.926;2023-04-15T17:11:11;12.00;99.10
1165;DHT22;571;50.930;6.926;2023-04-15T17:13:40;12.10;97.90
1165;DHT22;571;50.930;6.926;2023-04-15T17:16:08;12.20;98.00
1165;DHT22;571;50.930;6.926;2023-04-15T17:18:34;12.00;98.40
1165;DHT22;571;50.930;6.926;2023-04-15T17:21:08;12.00;98.50
1165;DHT22;571;50.930;6.926;2023-04-15T17:23:45;11.90;98.80
1165;DHT22;571;50.930;6.926;2023-04-15T17:26:21;11.80;98.00
1165;DHT22;571;50.930;6.926;2023-04-15T17:28:54;11.70;98.70
1165;DHT22;571;50.930;6.926;2023-04-15T17:31:31;11.70;98.60
1165;DHT22;571;50.930;6.926;2023-04-15T17:34:00;11.70;98.40
1165;DHT22;571;50.930;6.926;2023-04-15T17:36:36;11.80;98.20
1165;DHT22;571;50.930;6.926;2023-04-15T17:39:24;11.80;98.20
1165;DHT22;571;50.930;6.926;2023-04-15T17:41:59;11.70;98.70
1165;DHT22;571;50.930;6.926;2023-04-15T17:44:38;11.70;98.70
1165;DHT22;571;50.930;6.926;2023-04-15T17:47:16;11.70;98.50
1165;DHT22;571;50.930;6.926;2023-04-15T17:49:58;11.70;98.40
1165;DHT22;571;50.930;6.926;2023-04-15T17:52:46;11.80;98.00
1165;DHT22;571;50.930;6.926;2023-04-15T17:55:16;12.00;96.70
1165;DHT22;571;50.930;6.926;2023-04-15T17:57:49;12.00;97.30
1165;DHT22;571;50.930;6.926;2023-04-15T18:00:31;11.90;97.40
1165;DHT22;571;50.930;6.926;2023-04-15T18:03:00;11.90;97.00
1165;DHT22;571;50.930;6.926;2023-04-15T18:05:40;11.90;97.30
1165;DHT22;571;50.930;6.926;2023-04-15T18:08:13;11.90;97.20
1165;DHT22;571;50.930;6.926;2023-04-15T18:10:43;11.90;96.80
1165;DHT22;571;50.930;6.926;2023-04-15T18:13:24;11.80;97.30
1165;DHT22;571;50.930;6.926;2023-04-15T18:16:07;11.70;98.10
1165;DHT22;571;50.930;6.926;2023-04-15T18:18:48;11.60;98.30
1165;DHT22;571;50.930;6.926;2023-04-15T18:21:30;11.70;97.40
1165;DHT22;571;50.930;6.926;2023-04-15T18:24:39;11.60;97.90
1165;DHT22;571;50.930;6.926;2023-04-15T18:27:36;11.60;97.80
1165;DHT22;571;50.930;6.926;2023-04-15T18:30:13;11.50;97.40
1165;DHT22;571;50.930;6.926;2023-04-15T18:32:57;11.60;97.50
1165;DHT22;571;50.930;6.926;2023-04-15T18:35:32;11.60;97.40
1165;DHT22;571;50.930;6.926;2023-04-15T18:38:16;11.60;97.60
1165;DHT22;571;50.930;6.926;2023-04-15T18:41:08;11.50;97.80
1165;DHT22;571;50.930;6.926;2023-04-15T18:43:36;11.50;98.00
1165;DHT22;571;50.930;6.926;2023-04-15T18:49:35;11.40;99.00
1165;DHT22;571;50.930;6.926;2023-04-15T18:52:06;11.30;99.70
1165;DHT22;571;50.930;6.926;2023-04-15T18:54:39;11.20;99.90
1165;DHT22;571;50.930;6.926;2023-04-15T18:57:14;11.30;99.80
1165;DHT22;571;50.930;6.926;2023-04-15T19:00:22;11.10;99.90
1165;DHT22;571;50.930;6.926;2023-04-15T19:12:14;11.10;99.90
1165;DHT22;571;50.930;6.926;2023-04-15T19:23:22;10.70;99.90
1165;DHT22;571;50.930;6.926;2023-04-15T19:32:46;10.70;99.90
1165;DHT22;571;50.930;6.926;2023-04-15T19:35:26;10.70;99.90
1165;DHT22;571;50.930;6.926;2023-04-15T19:37:57;10.60;99.90
1165;DHT22;571;50.930;6.926;2023-04-15T19:40:55;10.50;99.90
1165;DHT22;571;50.930;6.926;2023-04-15T19:43:22;10.50;99.90
1165;DHT22;571;50.930;6.926;2023-04-15T19:45:50;10.50;99.90
1165;DHT22;571;50.930;6.926;2023-04-15T19:48:23;10.60;99.90
1165;DHT22;571;50.930;6.926;2023-04-15T19:50:59;10.60;99.90
1165;DHT22;571;50.930;6.926;2023-04-15T19:53:32;10.50;99.90
1165;DHT22;571;50.930;6.926;2023-04-15T19:56:03;10.60;99.90
1165;DHT22;571;50.930;6.926;2023-04-15T19:58:33;10.60;99.90
1165;DHT22;571;50.930;6.926;2023-04-15T20:01:01;10.60;99.90
1165;DHT22;571;50.930;6.926;2023-04-15T20:03:34;10.70;99.90
1165;DHT22;571;50.930;6.926;2023-04-15T20:06:01;10.70;99.90
1165;DHT22;571;50.930;6.926;2023-04-15T20:08:29;10.50;99.90
1165;DHT22;571;50.930;6.926;2023-04-15T20:10:59;10.50;99.90
1165;DHT22;571;50.930;6.926;2023-04-15T20:13:26;10.50;99.90
1165;DHT22;571;50.930;6.926;2023-04-15T20:15:53;10.40;99.90
1165;DHT22;571;50.930;6.926;2023-04-15T20:18:20;10.30;99.90
1165;DHT22;571;50.930;6.926;2023-04-15T20:20:50;10.30;99.90